Crestmore, California
Current Conditions -  °F | °C
As of 12:53 PM on Saturday 20 Dec 2014 (Local Time) from KRAL Reporting Station
Clear Clear  
Wind Chill: 59°   Ceiling: Unl
Heat Index: 59°   Visibility: 10mi
Dew Point: 46°   Wind: 3mph
Humidity: 62%   Direction: 250°WSW
Pressure: 30.15"   Gusts: NA
Location:  34.0579°N, 117.395°W
Report Text: KRAL 202053Z 25003KT 10SM CLR 15/08 A3015 RMK AO2 SLP201 T01500078 55018
Loading
Personal Weather Stations






























Interactive Weather Map New forecast layout! Learn more

10-Day Weather Forecast

Advertisements
Track Severe Weather on mobile